Weather at Grenoble-Isère Airport

Public forecast

Using degrees Celsius for public forecast. Weather courtesy of forecast.io.

Current aviation weather report (METAR) for Grenoble-Isère Airport

Report is more than 6 hours old.

2022/11/14 15:30 (retrieved 2 years ago)

LFLS 141530Z AUTO 28004KT CAVOK 12/09 Q1016 TEMPO RA

Aviation forecast (TAF) for Grenoble-Isère Airport

Forecast is more than 12 hours old.

2023/02/22 19:06 (retrieved 1 year ago)

TAF LFLS 221959Z 2219/2315 CNL